FAA A&P Mechanic (Merritt Island)

Apply Today!

Space Coast Aviation, a 2Fly Group company, is a full-service FBO that provide a variety of services to customers. We’re looking for a qualified FAA A&P Mechanic to join our team in Merritt Island (KCOI).  Position is available immediately and requires motivated, reliable and willing-to-learn individuals.

Ideal Candidates Should Posses:

  • US Resident/Citizen with legal right-to-work status
  • FAA A&P Certificate (IA preferred, but not required)
  • Two years minimum experience on General Aviation aircraft

Expected pay based on experience up to $35/hour. This position reports directly to the Director of Maintenance.

FBO Line Technician (Merritt Island)

Apply Today!

Space Coast Aviation, a 2Fly Group company, is a full-service FBO that provide a variety of services to customers. We’re looking for a Line Technician to join our team in Merritt Island (KCOI).  Position is available immediately and requires motivated, reliable and willing-to-learn individuals.

Ideal Candidates Should Posses:

  • US Resident/Citizen with legal right-to-work status

Job Duties and Responsibilities:

  • Hourly position
  • Must have flexibility with scheduling and available to work some weekends
  • Marshaling inbound and outbound aircraft
  • Ensure aircraft are secured
  • Assist with unloading and loading baggage for customers and/or crewmembers
  • Airplane Duties: refueling, towing, cleaning (interior/exterior), vacuuming, washing
  • Rental Car Duties: light maintenance, cleaning (interior/exterior), vacuuming, washing
  • Student Accommodations: light maintenance and occasional inspections

Expected pay based on experience. This position reports directly to the Line Service Supervisor.

SUBMIT YOUR RESUME

 

Verification

Airport Information

Identifier: KCOI
Non-Towered
Runway: 11 / 29
3601 X 75 ft
Surface: Asphalt

CTAF/UNICOM: 122.975
AWOS-3: 119.025
ORL APP: 132.65

Area Weather

Patrick AFB (KCOF) METAR:

KCOF 220758Z AUTO 08009KT 10SM CLR 28/24 A3006 RMK AO2 SLP184 T02780240 $

Titusville (KTIX) METAR:

KTIX 220047Z 09005KT 7SM FEW030 29/26 A3012 RMK LAST

Melbourne (KMLB) METAR:

KMLB 220753Z AUTO 08006KT 10SM CLR 28/24 A3006 RMK AO2 SLP180 T02830239

Hours of Operation

Mon: 7:00am - 8:00pm EST
Tue: 7:00am - 8:00pm EST
Wed: 7:00am - 8:00pm EST
Thu: 7:00am - 8:00pm EST
Fri: 7:00am - 8:00pm EST
Sat: 7:00am - 8:00pm EST
Sun: 7:00am - 8:00pm EST

Contact Us

Merritt Island Airport
900 Airport Road
Merritt Island, FL 32952

P: +1 (321) 453-2222